Time;durP1;ratioP1;P1;durP2;ratioP2;P2;SDS_P1;SDS_P2;PMS_P1;PMS_P2;Temp;Humidity;BMP_temperature;BMP_pressure;BME280_temperature;BME280_humidity;BME280_pressure;Samples;Min_cycle;Max_cycle;Signal;HPM_P1;HPM_P2
2024/04/05 00:03:04;;;;;;;2.70;1.70;;;;;;;7.97;52.93;99395.48;79933;1302;3012853;-59
2024/04/05 00:05:31;;;;;;;3.10;1.80;;;;;;;7.97;52.82;99399.80;78944;1307;3014541;-61
2024/04/05 00:07:57;;;;;;;2.20;1.60;;;;;;;7.91;53.19;99398.00;78944;1306;3013242;-61
2024/04/05 00:10:25;;;;;;;5.50;2.20;;;;;;;7.89;53.19;99396.91;77633;1308;3052663;-61
2024/04/05 00:12:52;;;;;;;3.50;1.90;;;;;;;7.90;53.25;99399.31;79040;1308;3013377;-61
2024/04/05 00:15:18;;;;;;;3.10;1.90;;;;;;;7.92;53.01;99397.62;78596;1307;3011715;-61
2024/04/05 00:17:47;;;;;;;3.70;2.00;;;;;;;7.94;52.94;99401.92;78731;1298;3026262;-62
2024/04/05 00:20:13;;;;;;;3.00;1.70;;;;;;;7.95;52.77;99401.14;79479;1302;3013308;-60
2024/04/05 00:22:40;;;;;;;2.60;1.80;;;;;;;7.97;52.73;99402.27;79268;1302;3011708;-60
2024/04/05 00:25:08;;;;;;;5.50;1.90;;;;;;;7.98;52.69;99408.13;77946;1301;3053153;-61
2024/04/05 00:27:34;;;;;;;3.40;2.10;;;;;;;7.95;53.12;99405.14;79177;1301;3018376;-61
2024/04/05 00:30:01;;;;;;;5.90;2.20;;;;;;;7.94;53.40;99405.36;79293;1301;3013015;-63
2024/04/05 00:32:29;;;;;;;3.40;2.00;;;;;;;7.98;52.98;99407.61;77940;1304;3025972;-60
2024/04/05 00:34:55;;;;;;;3.60;2.00;;;;;;;7.99;52.96;99406.69;79333;1302;3013282;-60
2024/04/05 00:37:22;;;;;;;3.40;2.10;;;;;;;7.93;53.06;99406.62;79174;1303;3013228;-58
2024/04/05 00:39:50;;;;;;;4.50;2.10;;;;;;;7.82;53.61;99405.61;77968;1303;3027953;-61
2024/04/05 00:42:16;;;;;;;3.40;2.10;;;;;;;7.77;53.77;99409.54;79346;1301;3013713;-60
2024/04/05 00:44:43;;;;;;;4.20;1.80;;;;;;;7.74;53.84;99412.32;79297;1301;3011727;-60
2024/04/05 00:47:11;;;;;;;3.60;1.90;;;;;;;7.73;53.91;99410.97;78164;1304;3026639;-60
2024/04/05 00:49:38;;;;;;;3.30;1.70;;;;;;;7.77;53.74;99411.45;79159;1301;3012722;-62
2024/04/05 00:52:05;;;;;;;6.40;2.10;;;;;;;7.79;53.77;99409.82;79261;1301;3011842;-60
2024/04/05 00:54:32;;;;;;;4.20;1.90;;;;;;;7.68;54.23;99407.55;78077;1300;3026808;-63
2024/04/05 00:56:59;;;;;;;2.90;1.70;;;;;;;7.65;54.44;99406.48;79475;1301;3013500;-61
2024/04/05 00:59:26;;;;;;;3.90;2.20;;;;;;;7.61;54.66;99409.47;79399;1299;3011621;-61
2024/04/05 01:01:54;;;;;;;6.70;2.00;;;;;;;7.57;54.67;99408.07;78023;1301;3026736;-62
2024/04/05 01:04:21;;;;;;;3.70;2.20;;;;;;;7.46;55.31;99407.54;79130;1301;3013455;-56
2024/04/05 01:06:47;;;;;;;3.40;2.10;;;;;;;7.49;55.10;99409.17;79107;1301;3012005;-62
2024/04/05 01:09:16;;;;;;;2.70;2.00;;;;;;;7.45;55.30;99412.13;77993;1301;3027549;-63
2024/04/05 01:11:42;;;;;;;3.40;2.20;;;;;;;7.40;55.77;99417.44;79208;1305;3013323;-60
2024/04/05 01:14:09;;;;;;;4.30;2.00;;;;;;;7.34;55.85;99417.37;79206;1301;3011640;-62
2024/04/05 01:16:37;;;;;;;4.80;2.00;;;;;;;7.31;56.01;99418.73;77995;1301;3030192;-59
2024/04/05 01:19:05;;;;;;;5.50;2.50;;;;;;;7.21;56.30;99423.02;79504;1301;3012848;-61
2024/04/05 01:21:32;;;;;;;4.70;2.80;;;;;;;7.22;56.04;99423.02;79708;1301;3011633;-65
2024/04/05 01:24:00;;;;;;;5.40;3.70;;;;;;;7.10;56.65;99424.09;78070;1302;3052167;-60
2024/04/05 01:26:29;;;;;;;6.40;3.80;;;;;;;7.05;57.09;99426.08;79409;1296;3019592;-60
2024/04/05 01:28:55;;;;;;;10.30;3.70;;;;;;;7.08;56.74;99428.55;80036;1296;3011728;-62
2024/04/05 01:31:23;;;;;;;6.60;4.00;;;;;;;6.96;57.36;99429.98;80552;1295;3048631;-61
2024/04/05 01:33:50;;;;;;;7.00;3.80;;;;;;;6.99;57.39;99428.76;79081;1296;3013110;-62
2024/04/05 01:36:16;;;;;;;6.30;3.50;;;;;;;7.00;57.32;99426.83;79520;1306;3012808;-59
2024/04/05 01:38:44;;;;;;;4.90;2.90;;;;;;;6.90;57.58;99431.61;78016;1302;3028175;-62
2024/04/05 01:41:11;;;;;;;5.20;3.10;;;;;;;6.77;58.12;99433.95;79346;1301;3018741;-58
2024/04/05 01:43:38;;;;;;;9.50;3.20;;;;;;;6.82;57.53;99434.59;79245;1300;3011730;-59
2024/04/05 01:46:05;;;;;;;4.20;3.00;;;;;;;6.82;57.52;99438.61;78338;1301;3028676;-59
2024/04/05 01:48:32;;;;;;;5.60;3.00;;;;;;;6.83;57.44;99441.50;79406;1298;3012971;-60
2024/04/05 01:50:59;;;;;;;6.10;3.20;;;;;;;6.77;57.78;99441.77;79387;1301;3011594;-60
2024/04/05 01:53:27;;;;;;;4.70;3.30;;;;;;;6.78;57.56;99444.38;78190;1300;3028715;-61
2024/04/05 01:55:53;;;;;;;4.80;2.80;;;;;;;6.71;57.67;99449.19;79356;1300;3013407;-62
2024/04/05 01:58:20;;;;;;;4.90;2.50;;;;;;;6.60;57.65;99447.40;79598;1300;3011949;-60
2024/04/05 02:00:48;;;;;;;3.90;2.70;;;;;;;6.41;58.00;99445.46;78124;1301;3028365;-61
2024/04/05 02:03:14;;;;;;;4.70;2.50;;;;;;;6.36;57.79;99445.50;79408;1296;3018696;-65
2024/04/05 02:05:41;;;;;;;5.10;2.60;;;;;;;6.31;57.92;99444.33;79317;1299;3011609;-62
2024/04/05 02:08:09;;;;;;;3.50;2.10;;;;;;;6.24;58.06;99450.73;78117;1300;3026216;-60
2024/04/05 02:10:35;;;;;;;3.70;2.20;;;;;;;6.22;58.06;99448.55;79392;1300;3012917;-61
2024/04/05 02:13:02;;;;;;;3.70;2.20;;;;;;;6.21;57.97;99446.34;79294;1308;3011646;-62
2024/04/05 02:15:31;;;;;;;4.40;2.00;;;;;;;6.22;57.94;99450.99;78317;1298;3028251;-61
2024/04/05 02:17:58;;;;;;;2.80;2.10;;;;;;;6.18;57.92;99448.36;79291;1302;3013619;-62
2024/04/05 02:20:25;;;;;;;3.20;2.00;;;;;;;6.15;58.13;99442.58;79776;1299;3011610;-61
2024/04/05 02:22:52;;;;;;;3.20;1.90;;;;;;;6.14;58.13;99445.41;78097;1301;3052198;-60
2024/04/05 02:25:19;;;;;;;6.20;2.20;;;;;;;6.11;58.14;99447.81;79325;1299;3013818;-63
2024/04/05 02:27:45;;;;;;;3.70;2.10;;;;;;;6.02;58.49;99446.58;79359;1295;3013292;-64
2024/04/05 02:30:13;;;;;;;3.70;1.70;;;;;;;5.91;59.26;99447.94;77982;1301;3027574;-59
2024/04/05 02:32:40;;;;;;;4.20;2.00;;;;;;;5.88;59.51;99445.07;79311;1296;3018492;-62
2024/04/05 02:35:06;;;;;;;2.90;1.80;;;;;;;5.92;59.31;99447.71;79254;1298;3013810;-62
2024/04/05 02:37:34;;;;;;;3.60;2.40;;;;;;;5.86;59.64;99448.80;78033;1301;3026335;-59
2024/04/05 02:40:01;;;;;;;4.00;2.20;;;;;;;5.81;59.74;99448.50;79242;1301;3013553;-62
2024/04/05 02:42:28;;;;;;;6.40;2.20;;;;;;;5.73;59.98;99457.50;79448;1298;3013238;-62
2024/04/05 02:44:56;;;;;;;5.50;2.70;;;;;;;5.64;60.29;99462.38;78080;1301;3027723;-62
2024/04/05 02:47:22;;;;;;;3.60;2.30;;;;;;;5.61;60.28;99463.91;79332;1299;3012817;-63
2024/04/05 02:49:53;;;;;;;5.50;2.30;;;;;;;5.60;60.58;99463.77;79454;1295;3011892;-61
2024/04/05 02:52:21;;;;;;;8.90;2.60;;;;;;;5.56;60.66;99463.74;78190;1301;3052394;-60
2024/04/05 02:54:48;;;;;;;6.30;2.70;;;;;;;5.46;61.27;99465.91;79311;1300;3012914;-60
2024/04/05 02:57:15;;;;;;;4.20;2.40;;;;;;;5.41;61.56;99463.66;79625;1301;3011709;-58
2024/04/05 02:59:42;;;;;;;4.80;2.80;;;;;;;5.39;61.69;99462.88;77944;1301;3027682;-60
2024/04/05 03:02:09;;;;;;;5.00;2.50;;;;;;;5.33;61.69;99472.66;79387;1296;3013553;-57
2024/04/05 03:04:36;;;;;;;4.60;2.50;;;;;;;5.25;61.75;99475.92;79262;1301;3012799;-58
2024/04/05 03:07:04;;;;;;;5.10;2.80;;;;;;;5.29;61.54;99471.77;78062;1301;3026615;-61
2024/04/05 03:09:31;;;;;;;4.70;2.50;;;;;;;5.10;61.99;99477.32;79355;1301;3013795;-60
2024/04/05 03:11:58;;;;;;;4.90;2.70;;;;;;;4.97;62.47;99478.17;79226;1301;3011960;-62
2024/04/05 03:14:25;;;;;;;6.80;2.40;;;;;;;4.96;62.55;99484.29;78017;1301;3028484;-57
2024/04/05 03:16:52;;;;;;;5.70;2.80;;;;;;;5.02;62.19;99485.77;79251;1296;3013755;-61
2024/04/05 03:19:19;;;;;;;9.70;4.40;;;;;;;4.94;62.56;99487.33;79470;1301;3012210;-65
2024/04/05 03:21:46;;;;;;;12.20;4.10;;;;;;;4.92;62.65;99491.05;78083;1302;3026891;-65
2024/04/05 03:24:13;;;;;;;7.20;3.50;;;;;;;4.91;62.71;99489.00;79289;1298;3018662;-62
2024/04/05 03:26:42;;;;;;;5.80;2.70;;;;;;;4.89;62.78;99488.53;79358;1301;3011942;-62
2024/04/05 03:29:10;;;;;;;5.60;2.80;;;;;;;4.98;62.35;99488.89;78044;1300;3049743;-62
2024/04/05 03:31:37;;;;;;;7.60;2.90;;;;;;;4.87;62.73;99495.55;79278;1295;3013769;-61
2024/04/05 03:34:03;;;;;;;6.70;2.60;;;;;;;4.83;62.67;99497.77;79423;1301;3011552;-60
2024/04/05 03:36:31;;;;;;;5.10;2.60;;;;;;;4.87;62.80;99499.57;78149;1301;3029771;-62
2024/04/05 03:39:00;;;;;;;8.00;2.60;;;;;;;4.88;62.66;99500.38;79202;1300;3013484;-60
2024/04/05 03:41:28;;;;;;;6.20;3.00;;;;;;;4.90;62.83;99501.54;79222;1296;3012773;-62
2024/04/05 03:43:57;;;;;;;6.50;2.50;;;;;;;4.92;62.45;99511.02;78261;1301;3049665;-63
2024/04/05 03:46:25;;;;;;;4.10;2.20;;;;;;;4.82;62.74;99508.93;79324;1295;3013225;-61
2024/04/05 03:48:51;;;;;;;4.00;2.40;;;;;;;4.84;62.58;99513.03;79379;1299;3012908;-62
2024/04/05 03:51:19;;;;;;;5.70;2.70;;;;;;;4.79;62.68;99511.80;78158;1301;3026410;-63
2024/04/05 03:53:46;;;;;;;5.30;2.80;;;;;;;4.76;62.66;99511.05;79370;1295;3013202;-60
2024/04/05 03:56:13;;;;;;;5.90;2.90;;;;;;;4.75;62.76;99513.88;79462;1300;3011764;-62
2024/04/05 03:58:41;;;;;;;4.50;3.00;;;;;;;4.78;62.44;99516.20;78106;1301;3025578;-59
2024/04/05 04:01:08;;;;;;;3.90;2.40;;;;;;;4.72;62.79;99519.00;79463;1300;3013342;-64
2024/04/05 04:03:35;;;;;;;4.80;2.20;;;;;;;4.77;62.63;99519.67;79210;1301;3011605;-63
2024/04/05 04:06:04;;;;;;;7.20;2.40;;;;;;;4.75;62.65;99518.20;78044;1300;3052591;-61
2024/04/05 04:08:31;;;;;;;4.90;2.50;;;;;;;4.70;62.73;99524.45;79410;1296;3011957;-61
2024/04/05 04:10:57;;;;;;;4.30;2.70;;;;;;;4.64;63.21;99525.02;79314;1295;3013264;-60
2024/04/05 04:13:26;;;;;;;3.80;2.70;;;;;;;4.76;63.05;99525.13;78118;1295;3049004;-63
2024/04/05 04:15:52;;;;;;;5.60;2.50;;;;;;;4.83;62.66;99527.13;79329;1300;3013675;-59
2024/04/05 04:18:19;;;;;;;5.40;2.90;;;;;;;4.81;62.72;99526.15;79222;1299;3012795;-63
2024/04/05 04:20:49;;;;;;;3.70;2.30;;;;;;;4.80;62.35;99526.88;78066;1295;3052251;-58
2024/04/05 04:23:15;;;;;;;5.30;2.80;;;;;;;4.80;62.53;99536.61;79302;1295;3013994;-63
2024/04/05 04:25:42;;;;;;;5.10;2.80;;;;;;;4.90;62.12;99534.14;79224;1296;3011631;-60
2024/04/05 04:28:10;;;;;;;12.10;2.50;;;;;;;4.93;62.05;99536.46;78206;1295;3048488;-62
2024/04/05 04:30:36;;;;;;;4.60;2.50;;;;;;;4.99;61.85;99539.03;79331;1300;3013611;-59
2024/04/05 04:33:03;;;;;;;4.80;2.80;;;;;;;5.05;61.29;99543.00;79329;1301;3013206;-61
2024/04/05 04:35:31;;;;;;;6.90;3.00;;;;;;;4.98;61.64;99542.18;78292;1297;3027387;-63
2024/04/05 04:37:57;;;;;;;5.50;2.80;;;;;;;4.87;62.04;99543.80;79304;1295;3018666;-60
2024/04/05 04:40:24;;;;;;;5.80;2.80;;;;;;;4.85;62.19;99551.86;79404;1297;3012775;-59
2024/04/05 04:42:53;;;;;;;6.00;2.80;;;;;;;4.86;62.14;99555.14;78195;1298;3028484;-63
2024/04/05 04:45:19;;;;;;;4.60;3.00;;;;;;;4.86;62.03;99558.79;79625;1296;3013480;-63
2024/04/05 04:47:46;;;;;;;6.40;2.70;;;;;;;4.68;62.61;99561.13;79324;1302;3013318;-60
2024/04/05 04:50:14;;;;;;;5.20;2.90;;;;;;;4.76;62.61;99560.70;78060;1301;3051650;-62
2024/04/05 04:52:41;;;;;;;9.50;3.10;;;;;;;4.76;62.92;99565.20;79377;1295;3014384;-60
2024/04/05 04:55:10;;;;;;;4.20;2.60;;;;;;;4.82;62.82;99568.11;79531;1300;3011644;-61
2024/04/05 04:57:38;;;;;;;5.40;2.80;;;;;;;4.84;62.51;99561.78;78118;1296;3049246;-62
2024/04/05 05:00:05;;;;;;;8.60;2.80;;;;;;;4.85;62.58;99561.75;79449;1301;3012926;-61
2024/04/05 05:02:32;;;;;;;4.90;2.90;;;;;;;4.77;62.76;99564.84;79602;1295;3011658;-62
2024/04/05 05:05:00;;;;;;;6.40;3.00;;;;;;;4.74;62.96;99563.38;78393;1296;3051009;-59
2024/04/05 05:07:27;;;;;;;6.20;3.10;;;;;;;4.69;63.21;99564.41;79621;1295;3019160;-57
2024/04/05 05:09:54;;;;;;;5.00;3.10;;;;;;;4.57;63.51;99565.66;79326;1295;3011789;-61
2024/04/05 05:12:23;;;;;;;4.90;2.90;;;;;;;4.57;63.88;99571.92;78177;1298;3027686;-63
2024/04/05 05:14:50;;;;;;;5.00;3.10;;;;;;;4.56;63.84;99573.00;79599;1295;3014779;-63
2024/04/05 05:17:16;;;;;;;7.10;3.30;;;;;;;4.66;63.84;99570.73;79255;1295;3011910;-62
2024/04/05 05:19:44;;;;;;;8.00;3.90;;;;;;;4.73;63.71;99573.13;78027;1297;3051932;-62
2024/04/05 05:22:10;;;;;;;8.00;2.90;;;;;;;4.76;63.89;99574.91;79526;1296;3012919;-61
2024/04/05 05:24:37;;;;;;;7.60;2.90;;;;;;;4.82;63.67;99578.70;79308;1298;3011720;-64
2024/04/05 05:27:05;;;;;;;6.10;3.00;;;;;;;4.80;63.67;99581.17;78450;1296;3026740;-60
2024/04/05 05:29:31;;;;;;;8.10;2.80;;;;;;;4.74;64.05;99580.72;79330;1296;3018484;-60
2024/04/05 05:31:58;;;;;;;5.10;2.80;;;;;;;4.85;63.95;99585.02;79326;1300;3011733;-62
2024/04/05 05:34:26;;;;;;;13.20;3.20;;;;;;;4.82;63.71;99584.94;78098;1298;3025684;-62
2024/04/05 05:36:52;;;;;;;6.60;3.20;;;;;;;4.93;63.66;99589.58;79425;1299;3020607;-62
2024/04/05 05:39:20;;;;;;;8.10;3.30;;;;;;;5.05;63.34;99591.06;79323;1301;3014113;-61
2024/04/05 05:41:48;;;;;;;8.20;3.10;;;;;;;5.11;63.20;99591.55;78250;1301;3048702;-62
2024/04/05 05:44:15;;;;;;;10.00;3.00;;;;;;;5.18;63.03;99591.30;79394;1295;3020848;-61
2024/04/05 05:46:42;;;;;;;5.30;3.00;;;;;;;5.29;62.89;99595.77;79222;1299;3011636;-64
2024/04/05 05:49:10;;;;;;;7.90;3.30;;;;;;;5.29;62.86;99598.02;78630;1300;3025997;-62
2024/04/05 05:51:37;;;;;;;5.70;2.90;;;;;;;5.43;62.58;99600.48;79376;1296;3013378;-61
2024/04/05 05:54:03;;;;;;;6.30;3.10;;;;;;;5.63;62.19;99600.40;79250;1299;3011661;-59
2024/04/05 05:56:32;;;;;;;4.90;2.90;;;;;;;5.83;61.42;99604.86;78181;1300;3028995;-62
2024/04/05 05:58:58;;;;;;;6.50;2.80;;;;;;;5.87;61.09;99602.98;79487;1295;3019205;-60
2024/04/05 06:01:25;;;;;;;8.40;3.00;;;;;;;5.89;61.02;99603.08;79634;1301;3011622;-62
2024/04/05 06:03:53;;;;;;;6.80;2.70;;;;;;;5.97;60.87;99606.95;78868;1297;3028477;-62
2024/04/05 06:06:19;;;;;;;8.20;3.10;;;;;;;5.99;60.66;99608.42;79631;1301;3012900;-61
2024/04/05 06:08:47;;;;;;;12.80;3.50;;;;;;;6.08;60.53;99611.23;80156;1295;3013331;-63
2024/04/05 06:11:15;;;;;;;6.80;3.40;;;;;;;6.09;60.29;99613.44;78018;1301;3048016;-60
2024/04/05 06:13:41;;;;;;;7.30;3.10;;;;;;;6.21;60.27;99613.67;79308;1297;3013566;-61
2024/04/05 06:16:08;;;;;;;5.20;2.60;;;;;;;6.44;59.67;99616.05;79493;1298;3011672;-61
2024/04/05 06:18:36;;;;;;;9.10;3.10;;;;;;;6.48;59.37;99614.83;77979;1296;3028507;-63
2024/04/05 06:21:02;;;;;;;6.20;2.70;;;;;;;6.62;59.25;99615.81;80066;1295;3012962;-60
2024/04/05 06:23:29;;;;;;;4.60;2.80;;;;;;;6.74;58.54;99616.89;79196;1300;3011683;-62
2024/04/05 06:25:58;;;;;;;10.50;2.80;;;;;;;6.90;58.23;99619.34;78084;1300;3027179;-62
2024/04/05 06:28:25;;;;;;;5.30;2.50;;;;;;;7.01;57.60;99619.02;79642;1300;3013450;-62
2024/04/05 06:30:52;;;;;;;4.00;2.70;;;;;;;7.11;57.49;99624.20;79600;1299;3011642;-63
2024/04/05 06:33:20;;;;;;;4.80;2.80;;;;;;;7.03;56.54;99627.14;78242;1301;3051252;-63
2024/04/05 06:35:55;;;;;;;6.80;2.90;;;;;;;7.15;56.64;99624.03;79876;1298;3013240;-63
2024/04/05 06:38:24;;;;;;;6.10;2.60;;;;;;;7.31;56.56;99622.27;78315;1296;3056492;-62
2024/04/05 06:40:57;;;;;;;4.20;2.60;;;;;;;7.21;56.25;99626.67;79321;1295;3013528;-63
2024/04/05 06:43:26;;;;;;;;;;;;;;;7.26;55.86;99624.76;78887;1296;3050678;-60
2024/04/05 06:45:56;;;;;;;3.70;2.50;;;;;;;7.12;56.31;99629.70;79268;1300;3019446;-62
2024/04/05 06:48:24;;;;;;;6.00;2.40;;;;;;;6.97;56.37;99635.57;78900;1299;3068190;-61
2024/04/05 06:50:51;;;;;;;3.80;2.30;;;;;;;6.96;56.68;99630.40;79950;1295;3013137;-63
2024/04/05 06:53:22;;;;;;;3.30;2.10;;;;;;;7.13;56.65;99633.67;79410;1300;3011510;-62
2024/04/05 06:55:50;;;;;;;3.80;2.10;;;;;;;6.86;57.12;99633.45;78076;1296;3053257;-61
2024/04/05 06:58:17;;;;;;;3.40;2.10;;;;;;;7.02;57.03;99628.40;79757;1300;3011427;-62
2024/04/05 07:00:45;;;;;;;3.80;2.10;;;;;;;7.37;56.05;99628.09;79490;1301;3011460;-62
2024/04/05 07:03:13;;;;;;;4.90;2.60;;;;;;;7.65;55.43;99630.13;78269;1298;3068609;-61
2024/04/05 07:05:40;;;;;;;5.40;2.30;;;;;;;7.84;54.78;99631.36;79607;1300;3013725;-61
2024/04/05 07:08:07;;;;;;;4.90;2.30;;;;;;;7.93;54.39;99629.89;79306;1295;3013221;-61
2024/04/05 07:10:38;;;;;;;8.60;2.20;;;;;;;8.19;53.91;99632.16;78001;1301;3027626;-62
2024/04/05 07:13:05;;;;;;;4.30;2.40;;;;;;;8.31;53.30;99637.16;79328;1295;3011653;-65
2024/04/05 07:15:36;;;;;;;3.30;2.10;;;;;;;8.29;53.23;99637.08;78804;1296;3013083;-62
2024/04/05 07:18:04;;;;;;;5.30;2.40;;;;;;;8.42;52.56;99636.63;79402;1299;3013169;-62
2024/04/05 07:20:33;;;;;;;3.00;1.90;;;;;;;8.58;52.29;99640.05;78792;1300;3011937;-63
2024/04/05 07:22:59;;;;;;;3.60;2.10;;;;;;;8.35;52.45;99646.76;79661;1297;3013192;-61
2024/04/05 07:25:26;;;;;;;2.90;1.90;;;;;;;8.34;52.63;99647.33;79903;1296;3013317;-62
2024/04/05 07:27:55;;;;;;;3.90;2.10;;;;;;;8.55;52.28;99645.60;78287;1296;3027089;-59
2024/04/05 07:30:22;;;;;;;2.60;1.80;;;;;;;8.56;52.12;99644.69;79558;1296;3014203;-61
2024/04/05 07:32:50;;;;;;;4.80;1.80;;;;;;;8.86;51.60;99645.48;79331;1301;3011851;-59
2024/04/05 07:35:20;;;;;;;4.80;2.00;;;;;;;9.10;50.84;99639.52;77936;1300;3069081;-62
2024/04/05 07:37:47;;;;;;;2.80;1.70;;;;;;;9.45;50.30;99643.14;79807;1295;3013630;-62
2024/04/05 07:40:20;;;;;;;2.90;1.90;;;;;;;9.02;50.62;99654.29;78949;1297;3011412;-62
2024/04/05 07:42:50;;;;;;;;;;;;;;;8.92;50.80;99653.94;79454;1300;3011833;-59
2024/04/05 07:45:22;;;;;;;7.40;1.90;;;;;;;8.74;51.34;99657.08;78888;1296;3052092;-60
2024/04/05 07:47:50;;;;;;;3.10;1.80;;;;;;;8.64;51.72;99652.86;79661;1296;3011946;-64
2024/04/05 07:50:18;;;;;;;3.20;1.90;;;;;;;8.71;51.29;99654.77;78385;1300;3052591;-63
2024/04/05 07:52:46;;;;;;;4.10;1.90;;;;;;;9.10;50.51;99646.35;79576;1300;3013075;-58
2024/04/05 07:55:13;;;;;;;4.70;1.60;;;;;;;9.32;50.08;99653.78;79838;1295;3013199;-59
2024/04/05 07:57:43;;;;;;;6.10;2.10;;;;;;;9.25;50.02;99661.83;78215;1295;3056585;-60
2024/04/05 08:00:16;;;;;;;2.90;1.60;;;;;;;9.11;50.10;99658.90;79334;1295;3013423;-63
2024/04/05 08:02:47;;;;;;;3.40;1.70;;;;;;;9.10;50.25;99659.16;78308;1300;3049050;-59
2024/04/05 08:05:14;;;;;;;3.80;1.60;;;;;;;9.34;49.73;99659.27;79462;1301;3011920;-62
2024/04/05 08:07:43;;;;;;;2.80;1.70;;;;;;;9.70;48.99;99657.02;78186;1300;3028507;-61
2024/04/05 08:10:10;;;;;;;3.40;2.10;;;;;;;9.84;48.37;99652.08;79286;1301;3013576;-63
2024/04/05 08:12:37;;;;;;;6.20;1.80;;;;;;;10.01;48.04;99650.96;79362;1295;3011688;-61
2024/04/05 08:15:09;;;;;;;2.80;1.70;;;;;;;10.16;47.82;99651.69;78216;1295;3048963;-61
2024/04/05 08:17:39;;;;;;;6.00;2.30;;;;;;;9.85;47.90;99654.13;79343;1295;3011875;-59
2024/04/05 08:20:07;;;;;;;2.70;1.50;;;;;;;9.47;48.62;99664.87;78178;1300;3049194;-61
2024/04/05 08:22:35;;;;;;;2.90;1.90;;;;;;;9.43;49.00;99652.71;79717;1301;3014916;-62
2024/04/05 08:25:02;;;;;;;2.50;1.70;;;;;;;9.62;48.73;99650.82;79622;1297;3013392;-60
2024/04/05 08:27:31;;;;;;;4.90;1.70;;;;;;;9.92;48.29;99649.72;78479;1300;3054272;-60
2024/04/05 08:29:58;;;;;;;2.70;1.70;;;;;;;10.21;47.42;99648.48;79419;1297;3013804;-63
2024/04/05 08:32:25;;;;;;;5.70;1.50;;;;;;;10.22;47.04;99650.50;79444;1295;3011600;-60
2024/04/05 08:34:52;;;;;;;3.60;2.00;;;;;;;10.13;46.93;99646.44;78247;1296;3050915;-61
2024/04/05 08:37:19;;;;;;;4.90;2.40;;;;;;;10.22;46.91;99645.39;79273;1301;3012781;-60
2024/04/05 08:39:46;;;;;;;6.50;2.20;;;;;;;10.46;46.58;99642.89;79349;1301;3013169;-59
2024/04/05 08:42:19;;;;;;;4.40;2.00;;;;;;;10.61;46.08;99650.77;78003;1301;3025753;-60
2024/04/05 08:44:49;;;;;;;2.60;1.60;;;;;;;10.43;46.19;99653.55;79357;1295;3011714;-61
2024/04/05 08:47:17;;;;;;;5.70;1.80;;;;;;;10.30;46.54;99647.92;78137;1300;3048294;-60
2024/04/05 08:49:47;;;;;;;3.60;1.60;;;;;;;10.67;45.94;99650.23;79319;1297;3013003;-60
2024/04/05 08:52:16;;;;;;;2.10;1.40;;;;;;;10.76;45.56;99647.45;79616;1295;3011630;-58
2024/04/05 08:54:43;;;;;;;2.90;1.70;;;;;;;10.99;45.06;99642.43;79423;1300;3011601;-62
2024/04/05 08:57:09;;;;;;;5.40;1.90;;;;;;;10.93;45.62;99647.48;79504;1296;3011667;-59
2024/04/05 08:59:38;;;;;;;3.50;1.60;;;;;;;10.87;45.72;99644.19;78206;1300;3026529;-61
2024/04/05 09:02:08;;;;;;;3.90;2.40;;;;;;;10.64;46.16;99642.70;79460;1295;3013755;-61
2024/04/05 09:04:36;;;;;;;3.60;2.20;;;;;;;10.75;45.82;99641.71;80256;1295;3011688;-61
2024/04/05 09:07:04;;;;;;;6.90;2.90;;;;;;;10.75;45.67;99642.05;79479;1298;3013503;-63
2024/04/05 09:09:33;;;;;;;4.80;2.40;;;;;;;10.69;45.74;99648.05;79513;1295;3013189;-63
2024/04/05 09:12:07;;;;;;;4.70;1.80;;;;;;;10.55;45.45;99647.98;78097;1300;3052773;-61
2024/04/05 09:14:37;;;;;;;2.20;1.50;;;;;;;10.39;46.01;99653.43;79376;1299;3013921;-59
2024/04/05 09:17:17;;;;;;;2.20;1.40;;;;;;;10.29;46.27;99656.05;78217;1298;3053060;-61
2024/04/05 09:19:46;;;;;;;6.40;1.80;;;;;;;10.34;46.41;99653.91;78134;1299;3056956;-62
2024/04/05 09:22:19;;;;;;;7.00;1.90;;;;;;;10.40;46.35;99648.30;79931;1295;3013028;-61
2024/04/05 09:24:48;;;;;;;8.40;2.30;;;;;;;10.69;45.85;99649.09;78527;1299;3050060;-60
2024/04/05 09:27:18;;;;;;;4.40;2.00;;;;;;;10.73;45.73;99648.13;79458;1298;3018552;-62
2024/04/05 09:29:46;;;;;;;9.50;2.00;;;;;;;10.44;45.99;99647.21;78204;1301;3068499;-60
2024/04/05 09:32:19;;;;;;;2.70;1.80;;;;;;;10.53;45.24;99649.48;79436;1295;3019119;-60
2024/04/05 09:34:47;;;;;;;4.10;1.90;;;;;;;10.61;44.98;99651.16;78173;1295;3047967;-61
2024/04/05 09:37:14;;;;;;;2.20;1.50;;;;;;;10.82;44.71;99650.25;79393;1297;3013241;-58
2024/04/05 09:39:41;;;;;;;5.40;1.90;;;;;;;10.89;44.51;99644.60;79289;1301;3011624;-60
2024/04/05 09:42:10;;;;;;;3.40;2.60;;;;;;;11.23;44.24;99641.36;78161;1300;3051823;-61
2024/04/05 09:44:40;;;;;;;2.70;1.70;;;;;;;11.65;43.66;99642.81;79656;1298;3013215;-59
2024/04/05 09:47:08;;;;;;;7.00;2.00;;;;;;;11.85;42.79;99646.48;78910;1294;3056460;-61
2024/04/05 09:49:36;;;;;;;3.80;1.80;;;;;;;11.93;42.93;99646.70;79758;1296;3014737;-60
2024/04/05 09:52:09;;;;;;;7.70;2.20;;;;;;;11.94;42.25;99648.23;79381;1296;3011607;-60
2024/04/05 09:54:38;;;;;;;3.60;1.80;;;;;;;11.94;42.12;99646.48;78163;1301;3052302;-59
2024/04/05 09:57:06;;;;;;;8.40;1.90;;;;;;;12.00;41.94;99651.18;79248;1301;3013286;-61
2024/04/05 09:59:36;;;;;;;4.90;1.90;;;;;;;12.19;41.99;99651.42;79084;1295;3011894;-61
2024/04/05 10:02:03;;;;;;;3.50;1.70;;;;;;;12.24;41.37;99654.80;79798;1297;3013300;-59
2024/04/05 10:04:31;;;;;;;5.20;2.00;;;;;;;12.19;41.48;99654.70;79566;1295;3012983;-60
2024/04/05 10:07:06;;;;;;;2.30;1.90;;;;;;;11.78;41.82;99661.14;78127;1295;3053295;-62
2024/04/05 10:09:35;;;;;;;3.20;1.70;;;;;;;11.82;41.92;99653.86;78804;1300;3014130;-61
2024/04/05 10:12:16;;;;;;;8.10;2.00;;;;;;;11.90;41.81;99661.64;79798;1294;3011920;-61
2024/04/05 10:14:54;;;;;;;2.80;1.70;;;;;;;11.49;42.28;99662.04;78394;1301;3053201;-61
2024/04/05 10:17:28;;;;;;;9.10;2.00;;;;;;;11.53;42.82;99655.49;78133;1295;3068726;-59
2024/04/05 10:20:06;;;;;;;7.80;2.20;;;;;;;11.86;42.35;99656.94;79283;1295;3011500;-60
2024/04/05 10:22:34;;;;;;;5.40;1.60;;;;;;;11.69;42.35;99650.64;78176;1295;3056172;-62
2024/04/05 10:25:02;;;;;;;3.40;1.60;;;;;;;11.81;42.31;99649.06;79466;1295;3019608;-63
2024/04/05 10:27:29;;;;;;;3.40;1.60;;;;;;;12.08;41.88;99644.34;79323;1295;3011851;-57
2024/04/05 10:30:03;;;;;;;4.30;1.90;;;;;;;12.20;41.22;99652.05;78027;1301;3051724;-62
2024/04/05 10:32:32;;;;;;;8.60;1.90;;;;;;;12.05;41.54;99651.94;79714;1299;3012795;-61
2024/04/05 10:35:07;;;;;;;4.60;1.50;;;;;;;12.20;41.60;99652.95;78587;1295;3067554;-59
2024/04/05 10:37:38;;;;;;;3.70;1.30;;;;;;;12.47;40.56;99659.08;79227;1295;3011894;-60
2024/04/05 10:40:10;;;;;;;3.70;1.40;;;;;;;12.20;40.80;99668.35;79711;1295;3011527;-62
2024/04/05 10:42:39;;;;;;;3.10;1.40;;;;;;;12.02;40.67;99666.49;78150;1298;3057157;-62
2024/04/05 10:45:07;;;;;;;4.40;1.60;;;;;;;11.79;40.69;99666.35;79540;1295;3013249;-62
2024/04/05 10:47:37;;;;;;;2.70;1.20;;;;;;;12.03;40.44;99663.83;79031;1295;3011788;-60
2024/04/05 10:50:08;;;;;;;2.90;1.20;;;;;;;12.35;39.68;99671.98;79276;1301;3021108;-59
2024/04/05 10:52:36;;;;;;;5.00;1.40;;;;;;;12.68;38.99;99665.78;78310;1296;3052690;-61
2024/04/05 10:55:12;;;;;;;2.90;1.20;;;;;;;12.91;38.93;99665.33;79205;1298;3013109;-63
2024/04/05 10:57:40;;;;;;;3.60;1.10;;;;;;;12.85;39.00;99668.19;78012;1300;3057408;-59
2024/04/05 11:00:11;;;;;;;3.60;1.40;;;;;;;12.82;38.84;99666.94;79636;1299;3013989;-60
2024/04/05 11:02:43;;;;;;;4.10;1.40;;;;;;;12.81;39.31;99669.16;78241;1295;3050124;-60
2024/04/05 11:05:14;;;;;;;2.90;1.00;;;;;;;12.91;38.80;99669.35;79342;1300;3013630;-62
2024/04/05 11:07:42;;;;;;;2.20;1.30;;;;;;;12.67;39.53;99671.15;77994;1295;3052839;-60
2024/04/05 11:10:16;;;;;;;3.40;1.40;;;;;;;12.83;39.28;99668.45;79318;1295;3014290;-60
2024/04/05 11:12:45;;;;;;;4.00;1.40;;;;;;;13.17;38.82;99656.73;78089;1295;3056783;-60
2024/04/05 11:15:11;;;;;;;6.30;1.30;;;;;;;13.18;38.60;99660.52;79396;1296;3013416;-60
2024/04/05 11:17:38;;;;;;;3.50;1.50;;;;;;;13.14;38.50;99658.80;79225;1296;3013683;-61
2024/04/05 11:20:11;;;;;;;8.30;1.30;;;;;;;12.95;39.18;99659.95;78421;1298;3052786;-61
2024/04/05 11:22:39;;;;;;;;;;;;;;;13.01;38.50;99661.27;79448;1298;3013235;-60
2024/04/05 11:25:08;;;;;;;5.90;1.00;;;;;;;12.93;38.62;99656.56;78211;1298;3068916;-64
2024/04/05 11:27:35;;;;;;;9.80;1.20;;;;;;;13.24;38.15;99645.11;79608;1295;3013328;-60
2024/04/05 11:30:05;;;;;;;2.00;1.30;;;;;;;13.17;37.83;99649.45;79238;1295;3011428;-61